Data for 12/08/2007

Time Sea-Level Adjusted Pressure Absolute Pressure Temperature Relative Humidity Dew Point   
(mb) (inHg) (mb) (inHg) (C) (F) (%) (C) (F)
00:05 1017 30.03 846 24.98 -8.5 16.6 63 -14.3 6.2
00:10 1017 30.03 846 24.98 -8.5 16.7 63 -14.2 6.4
00:15 1017 30.03 846 24.98 -8.5 16.7 63 -14.3 6.3
00:20 1017 30.03 846 24.98 -8.5 16.7 64 -14.2 6.4
00:25 1017 30.03 846 24.98 -8.6 16.6 64 -14.1 6.6
00:30 1017 30.03 846 24.98 -8.6 16.6 65 -14.1 6.6
00:35 1017 30.03 846 24.98 -8.6 16.6 65 -14 6.8
00:40 1017 30.03 846 24.98 -8.6 16.5 65 -14 6.8
00:45 1017 30.03 846 24.98 -8.6 16.5 66 -13.9 7
00:50 1017 30.03 846 24.98 -8.7 16.4 66 -13.9 7
00:55 1017 30.03 846 24.98 -8.7 16.4 66 -13.9 6.9
01:00 1017 30.03 846 24.98 -8.7 16.4 66 -13.9 7
01:05 1017 30.03 846 24.98 -8.6 16.5 66 -13.8 7.1
01:10 1017 30.03 846 24.98 -8.7 16.4 67 -13.8 7.1
01:15 1017 30.03 846 24.98 -8.7 16.3 67 -13.8 7.1
01:20 1017 30.03 846 24.98 -8.8 16.3 67 -13.7 7.3
01:25 1017 30.03 846 24.98 -8.8 16.2 68 -13.7 7.3
01:30 1017 30.03 846 24.98 -8.8 16.3 68 -13.7 7.3
01:35 1017 30.03 846 24.98 -8.8 16.1 68 -13.8 7.2
01:40 1017 30.03 846 24.98 -8.9 16.1 68 -13.7 7.3
01:45 1017 30.03 846 24.98 -8.9 16 68 -13.9 7.1
01:50 1017 30.03 846 24.98 -8.9 16 68 -13.8 7.1
01:55 1017 30.03 846 24.98 -8.9 16 68 -13.8 7.1
02:00 1017 30.03 846 24.98 -8.9 16 68 -13.8 7.2
02:05 1017 30.03 846 24.98 -8.9 15.9 68 -13.7 7.3
02:10 1017 30.03 846 24.98 -9 15.9 68 -13.9 6.9
02:15 1017 30.03 847 25.01 -9 15.8 68 -13.9 7
02:20 1017 30.03 847 25.01 -9 15.7 68 -13.9 7
02:25 1017 30.03 847 25.01 -9 15.8 69 -13.8 7.2
02:30 1017 30.03 847 25.01 -9 15.7 68 -13.8 7.1
02:35 1017 30.03 847 25.01 -9 15.8 68 -13.8 7.1
02:40 1017 30.03 847 25.01 -9 15.8 68 -13.8 7.1
02:45 1017 30.03 847 25.01 -9 15.7 68 -13.9 7
02:50 1018 30.06 847 25.01 -9 15.8 68 -13.9 7
02:55 1018 30.06 847 25.01 -9.1 15.7 67 -14 6.7
03:00 1018 30.06 847 25.01 -9.1 15.7 67 -14.1 6.7
03:05 1018 30.06 847 25.01 -9.1 15.6 68 -14 6.8
03:10 1018 30.06 847 25.01 -9.1 15.5 68 -14.1 6.7
03:15 1018 30.06 847 25.01 -9.2 15.4 68 -14.1 6.5
03:20 1018 30.06 847 25.01 -9.2 15.4 67 -14.2 6.4
03:25 1018 30.06 847 25.01 -9.3 15.3 67 -14.3 6.3
03:30 1018 30.06 847 25.01 -9.3 15.3 67 -14.4 6.1
03:35 1018 30.06 847 25.01 -9.3 15.2 67 -14.5 6
03:40 1018 30.06 847 25.01 -9.4 15.1 66 -14.6 5.8
03:45 1018 30.06 847 25.01 -9.5 15 67 -14.6 5.8
03:50 1018 30.06 847 25.01 -9.6 14.8 67 -14.6 5.6
03:55 1018 30.06 847 25.01 -9.6 14.7 67 -14.6 5.7
04:00 1018 30.06 847 25.01 -9.7 14.6 68 -14.6 5.8
04:05 1018 30.06 847 25.01 -9.8 14.4 68 -14.7 5.6
04:10 1018 30.06 847 25.01 -9.8 14.3 67 -14.8 5.4
04:15 1018 30.06 847 25.01 -9.9 14.3 68 -14.7 5.6
04:20 1018 30.06 847 25.01 -9.9 14.2 68 -14.7 5.5
04:25 1018 30.06 847 25.01 -9.9 14.1 68 -14.8 5.4
04:30 1018 30.06 847 25.01 -9.9 14.2 68 -14.7 5.5
04:35 1018 30.06 847 25.01 -9.9 14.2 68 -14.7 5.6
04:40 1018 30.06 847 25.01 -9.9 14.2 68 -14.7 5.5
04:45 1018 30.06 847 25.01 -9.9 14.3 68 -14.6 5.7
04:50 1018 30.06 847 25.01 -9.9 14.2 68 -14.6 5.7
04:55 1018 30.06 847 25.01 -9.9 14.2 69 -14.6 5.8
05:00 1018 30.06 847 25.01 -9.9 14.1 69 -14.6 5.7
05:05 1018 30.06 847 25.01 -10 14.1 69 -14.6 5.7
05:10 1018 30.06 847 25.01 -10 14 69 -14.6 5.7
05:15 1018 30.06 847 25.01 -10 14 69 -14.6 5.7
05:20 1018 30.06 847 25.01 -10 14 70 -14.6 5.8
05:25 1018 30.06 847 25.01 -10.1 13.9 70 -14.6 5.8
05:30 1018 30.06 847 25.01 -10.1 13.9 70 -14.5 5.9
05:35 1018 30.06 847 25.01 -10.1 13.8 70 -14.5 5.9
05:40 1018 30.06 847 25.01 -10.1 13.8 71 -14.5 5.9
05:45 1018 30.06 847 25.01 -10.1 13.8 71 -14.4 6.1
05:50 1018 30.06 847 25.01 -10.2 13.7 72 -14.4 6.1
05:55 1018 30.06 847 25.01 -10.2 13.7 72 -14.2 6.4
06:00 1018 30.06 848 25.04 -10.2 13.6 72 -14.3 6.3
06:05 1018 30.06 848 25.04 -10.2 13.6 72 -14.3 6.3
06:10 1018 30.06 848 25.04 -10.2 13.7 72 -14.3 6.2
06:15 1018 30.06 848 25.04 -10.2 13.7 73 -14.2 6.4
06:20 1018 30.06 848 25.04 -10.2 13.6 73 -14.2 6.5
06:25 1018 30.06 848 25.04 -10.2 13.6 73 -14.2 6.4
06:30 1019 30.09 848 25.04 -10.3 13.6 73 -14.2 6.5
06:35 1019 30.09 848 25.04 -10.3 13.5 73 -14.2 6.5
06:40 1019 30.09 848 25.04 -10.3 13.5 74 -14.1 6.6
06:45 1019 30.09 848 25.04 -10.3 13.4 74 -14.1 6.7
06:50 1019 30.09 848 25.04 -10.3 13.4 74 -14.1 6.7
06:55 1019 30.09 848 25.04 -10.3 13.4 74 -14.1 6.6
07:00 1019 30.09 848 25.04 -10.3 13.4 74 -14.1 6.7
07:05 1019 30.09 848 25.04 -10.4 13.3 75 -14.1 6.7
07:10 1019 30.09 848 25.04 -10.4 13.3 75 -14.1 6.6
07:15 1019 30.09 848 25.04 -10.4 13.2 74 -14.2 6.5
07:20 1019 30.09 848 25.04 -10.4 13.3 74 -14.1 6.5
07:25 1019 30.09 848 25.04 -10.5 13.2 74 -14.3 6.2
07:30 1019 30.09 848 25.04 -10.5 13.2 73 -14.3 6.2
07:35 1019 30.09 848 25.04 -10.5 13.1 73 -14.5 6
07:40 1019 30.09 848 25.04 -10.5 13.2 72 -14.6 5.8
07:45 1019 30.09 848 25.04 -10.5 13.2 73 -14.4 6.1
07:50 1019 30.09 848 25.04 -10.5 13.1 73 -14.5 5.9
07:55 1019 30.09 848 25.04 -10.5 13 72 -14.6 5.6
08:00 1019 30.09 849 25.07 -10.5 13.1 71 -14.7 5.5
08:05 1019 30.09 849 25.07 -10.5 13.2 71 -14.7 5.5
08:10 1019 30.09 849 25.07 -10.5 13.2 71 -14.8 5.3
08:15 1020 30.12 849 25.07 -10.5 13.2 71 -14.7 5.5
08:20 1020 30.12 849 25.07 -10.5 13.1 72 -14.7 5.6
08:25 1020 30.12 849 25.07 -10.6 13 71 -14.8 5.4
08:30 1020 30.12 849 25.07 -10.6 13 72 -14.7 5.6
08:35 1020 30.12 849 25.07 -10.6 13 72 -14.6 5.7
08:40 1020 30.12 849 25.07 -10.6 12.9 72 -14.7 5.6
08:45 1020 30.12 849 25.07 -10.6 12.9 72 -14.7 5.5
08:50 1020 30.12 849 25.07 -10.6 13 73 -14.6 5.7
08:55 1020 30.12 849 25.07 -10.6 12.9 72 -14.7 5.6
09:00 1020 30.12 849 25.07 -10.6 13 72 -14.7 5.6
09:05 1020 30.12 849 25.07 -10.6 13 72 -14.6 5.7
09:10 1020 30.12 849 25.07 -10.6 13 72 -14.7 5.6
09:15 1020 30.12 850 25.1 -10.5 13 72 -14.6 5.8
09:20 1020 30.12 850 25.1 -10.5 13.1 73 -14.5 5.8
09:25 1021 30.15 850 25.1 -10.5 13.2 72 -14.5 5.8
09:30 1021 30.15 850 25.1 -10.5 13.2 73 -14.5 5.9
09:35 1021 30.15 850 25.1 -10.5 13.2 73 -14.4 6
09:40 1021 30.15 850 25.1 -10.5 13.1 73 -14.4 6.1
09:45 1021 30.15 850 25.1 -10.5 13.1 73 -14.5 6
09:50 1021 30.15 850 25.1 -10.5 13.1 73 -14.5 5.9
09:55 1021 30.15 850 25.1 -10.5 13.2 72 -14.5 5.9
10:00 1021 30.15 850 25.1 -10.4 13.3 72 -14.5 6
10:05 1021 30.15 850 25.1 -10.3 13.4 72 -14.4 6
10:10 1021 30.15 850 25.1 -10.3 13.5 72 -14.4 6.1
10:15 1021 30.15 850 25.1 -10.1 13.8 72 -14.2 6.4
10:20 1021 30.15 850 25.1 -10 13.9 72 -14.2 6.4
10:25 1021 30.15 850 25.1 -10.1 13.9 72 -14.2 6.5
10:30 1021 30.15 850 25.1 -9.8 14.4 70 -14.2 6.5
10:35 1021 30.15 850 25.1 -9.5 15 69 -14.2 6.5
10:40 1021 30.15 850 25.1 -9.3 15.3 67 -14.3 6.2
10:45 1021 30.15 850 25.1 -9.1 15.7 66 -14.2 6.4
10:50 1021 30.15 851 25.13 -9 15.8 66 -14.2 6.5
10:55 1021 30.15 850 25.1 -9 15.9 66 -14.2 6.4
11:00 1021 30.15 850 25.1 -8.9 16.1 66 -14.1 6.6
11:05 1021 30.15 850 25.1 -9 15.8 66 -14.3 6.3
11:10 1021 30.15 850 25.1 -9.3 15.3 67 -14.3 6.2
11:15 1021 30.15 850 25.1 -9.2 15.4 67 -14.3 6.2
11:20 1021 30.15 850 25.1 -9.6 14.8 70 -14 6.8
11:25 1021 30.15 850 25.1 -9.6 14.8 69 -14.3 6.3
11:30 1021 30.15 850 25.1 -9.6 14.7 70 -14.1 6.6
11:35 1021 30.15 850 25.1 -9.7 14.5 69 -14.4 6.1
11:40 1021 30.15 850 25.1 -9.5 14.8 67 -14.5 5.9
11:45 1021 30.15 850 25.1 -9.4 15.1 68 -14.2 6.4
11:50 1021 30.15 850 25.1 -9.3 15.3 68 -14.2 6.4
11:55 1021 30.15 850 25.1 -8.9 16 66 -14.2 6.5
12:00 1021 30.15 850 25.1 -8.5 16.8 64 -14 6.7
12:05 1021 30.15 850 25.1 -8.4 16.9 65 -13.9 7
12:10 1021 30.15 850 25.1 -8.3 17.1 64 -13.9 7.1
12:15 1021 30.15 850 25.1 -8.2 17.2 63 -14.1 6.6
12:20 1021 30.15 850 25.1 -8.1 17.4 62 -14.2 6.5
12:25 1021 30.15 850 25.1 -8.3 17.1 64 -14 6.7
12:30 1021 30.15 850 25.1 -8.4 16.9 63 -14.2 6.5
12:35 1021 30.15 850 25.1 -8.3 17 62 -14.3 6.3
12:40 1021 30.15 850 25.1 -8.2 17.2 61 -14.4 6
12:45 1021 30.15 850 25.1 -8.2 17.2 61 -14.4 6
12:50 1021 30.15 850 25.1 -8.1 17.4 61 -14.3 6.2
12:55 1021 30.15 850 25.1 -7.8 17.9 59 -14.4 6
13:00 1021 30.15 850 25.1 -7.9 17.8 61 -14.2 6.5
13:05 1021 30.15 850 25.1 -7.9 17.8 60 -14.4 6.1
13:10 1021 30.15 850 25.1 -8 17.5 61 -14.3 6.2
13:15 1021 30.15 850 25.1 -7.8 17.9 61 -14.2 6.5
13:20 1021 30.15 850 25.1 -7.8 18 60 -14.2 6.4
13:25 1020 30.12 850 25.1 -7.8 18.1 60 -14.2 6.5
13:30 1020 30.12 850 25.1 -8 17.7 62 -13.9 6.9
13:35 1020 30.12 850 25.1 -7.8 18 61 -14.1 6.6
13:40 1020 30.12 849 25.07 -8 17.7 62 -13.9 6.9
13:45 1020 30.12 849 25.07 -8 17.6 62 -14.1 6.7
13:50 1020 30.12 849 25.07 -7.8 18 61 -14.1 6.6
13:55 1020 30.12 849 25.07 -7.9 17.8 62 -13.9 6.9
14:00 1020 30.12 849 25.07 -7.9 17.9 61 -14.2 6.4
14:05 1020 30.12 849 25.07 -7.6 18.4 60 -14.1 6.7
14:10 1020 30.12 849 25.07 -7.5 18.4 61 -13.9 7
14:15 1020 30.12 849 25.07 -7.7 18.1 61 -13.9 6.9
14:20 1020 30.12 849 25.07 -7.8 17.9 62 -13.9 6.9
14:25 1020 30.12 849 25.07 -7.7 18.2 62 -13.8 7.2
14:30 1020 30.12 849 25.07 -7.4 18.7 58 -14.4 6.1
14:35 1020 30.12 849 25.07 -7.4 18.6 58 -14.3 6.3
14:40 1020 30.12 849 25.07 -7.4 18.8 59 -14.1 6.6
14:45 1020 30.12 849 25.07 -7.5 18.5 58 -14.4 6.1
14:50 1020 30.12 849 25.07 -7.5 18.4 59 -14.3 6.2
14:55 1020 30.12 849 25.07 -7.6 18.3 61 -13.9 7
15:00 1020 30.12 849 25.07 -8.3 17 63 -14.2 6.4
15:05 1020 30.12 849 25.07 -8.4 16.9 63 -14.3 6.2
15:10 1020 30.12 849 25.07 -8.6 16.5 64 -14.3 6.2
15:15 1020 30.12 849 25.07 -8.5 16.8 61 -14.6 5.7
15:20 1020 30.12 849 25.07 -8.2 17.3 61 -14.4 6
15:25 1020 30.12 849 25.07 -8.2 17.2 60 -14.6 5.7
15:30 1020 30.12 849 25.07 -8.5 16.8 62 -14.5 5.8
15:35 1020 30.12 849 25.07 -8.6 16.6 61 -14.9 5.3
15:40 1020 30.12 849 25.07 -8.5 16.8 61 -14.7 5.6
15:45 1020 30.12 850 25.1 -8.5 16.7 61 -14.7 5.5
15:50 1020 30.12 850 25.1 -8.3 17.1 61 -14.6 5.8
15:55 1020 30.12 850 25.1 -8.3 17.1 62 -14.4 6
16:00 1020 30.12 850 25.1 -8.4 16.8 61 -14.7 5.6
16:05 1020 30.12 850 25.1 -8.7 16.3 63 -14.6 5.7
16:10 1020 30.12 850 25.1 -9.1 15.7 64 -14.6 5.7
16:15 1020 30.12 850 25.1 -9.2 15.5 65 -14.6 5.6
16:20 1020 30.12 850 25.1 -9.3 15.3 66 -14.6 5.8
16:25 1021 30.15 850 25.1 -9.3 15.4 66 -14.4 6
16:30 1021 30.15 850 25.1 -9.2 15.4 65 -14.6 5.7
16:35 1021 30.15 850 25.1 -9.3 15.2 66 -14.6 5.8
16:40 1021 30.15 850 25.1 -9.4 15.1 67 -14.4 6
16:45 1021 30.15 850 25.1 -9.4 15 66 -14.6 5.7
16:50 1021 30.15 850 25.1 -9.5 15 67 -14.6 5.8
16:55 1021 30.15 850 25.1 -9.5 14.8 68 -14.4 6.2
17:00 1021 30.15 850 25.1 -9.6 14.8 68 -14.4 6.1
17:05 1021 30.15 850 25.1 -9.6 14.8 68 -14.4 6.1
17:10 1021 30.15 850 25.1 -9.6 14.8 67 -14.6 5.6
17:15 1021 30.15 850 25.1 -9.5 14.8 68 -14.3 6.2
17:20 1021 30.15 850 25.1 -9.5 15 67 -14.5 5.8
17:25 1021 30.15 850 25.1 -9.4 15 67 -14.5 6
17:30 1021 30.15 850 25.1 -9.3 15.2 66 -14.6 5.8
17:35 1021 30.15 850 25.1 -9.4 15.2 67 -14.5 5.9
17:40 1021 30.15 850 25.1 -9.3 15.2 67 -14.4 6
17:45 1021 30.15 850 25.1 -9.3 15.3 66 -14.5 6
17:50 1021 30.15 850 25.1 -9.2 15.4 67 -14.4 6.1
17:55 1021 30.15 850 25.1 -9.3 15.4 67 -14.3 6.2
18:00 1021 30.15 850 25.1 -9.3 15.2 68 -14.2 6.4
18:05 1021 30.15 850 25.1 -9.4 15.1 68 -14.1 6.5
18:10 1021 30.15 850 25.1 -9.4 15.1 69 -14.1 6.7
18:15 1021 30.15 850 25.1 -9.4 15 69 -14.2 6.5
18:20 1021 30.15 850 25.1 -9.5 14.9 69 -14.2 6.5
18:25 1021 30.15 850 25.1 -9.5 14.9 69 -14.2 6.4
18:30 1021 30.15 850 25.1 -9.5 14.9 68 -14.3 6.3
18:35 1021 30.15 850 25.1 -9.5 14.9 70 -14.1 6.7
18:40 1021 30.15 851 25.13 -9.5 14.9 68 -14.3 6.3
18:45 1021 30.15 851 25.13 -9.5 14.9 69 -14.2 6.5
18:50 1021 30.15 851 25.13 -9.5 14.9 68 -14.3 6.3
18:55 1021 30.15 851 25.13 -9.5 14.9 68 -14.3 6.3
19:00 1021 30.15 851 25.13 -9.5 15 68 -14.3 6.2
19:05 1021 30.15 851 25.13 -9.5 14.9 68 -14.3 6.2
19:10 1021 30.15 851 25.13 -9.5 15 68 -14.3 6.2
19:15 1021 30.15 851 25.13 -9.5 14.9 69 -14.2 6.5
19:20 1022 30.18 851 25.13 -9.5 14.9 68 -14.3 6.3
19:25 1022 30.18 851 25.13 -9.5 15 69 -14.2 6.5
19:30 1022 30.18 851 25.13 -9.5 14.9 69 -14.2 6.4
19:35 1022 30.18 851 25.13 -9.5 15 70 -14 6.8
19:40 1021 30.15 851 25.13 -9.5 15 69 -14.1 6.7
19:45 1021 30.15 851 25.13 -9.5 15 68 -14.3 6.2
19:50 1022 30.18 851 25.13 -9.5 15 70 -14 6.9
19:55 1021 30.15 851 25.13 -9.5 15 70 -14 6.8
20:00 1021 30.15 851 25.13 -9.5 14.9 70 -14 6.9
20:05 1021 30.15 851 25.13 -9.5 14.9 70 -14 6.8
20:10 1021 30.15 851 25.13 -9.5 14.9 69 -14.2 6.5
20:15 1022 30.18 851 25.13 -9.5 14.9 69 -14.2 6.4
20:20 1022 30.18 851 25.13 -9.5 15 69 -14.1 6.5
20:25 1022 30.18 851 25.13 -9.5 14.9 70 -14.1 6.6
20:30 1022 30.18 851 25.13 -9.6 14.8 69 -14.3 6.3
20:35 1022 30.18 851 25.13 -9.6 14.8 70 -14 6.7
20:40 1022 30.18 851 25.13 -9.6 14.8 70 -14 6.7
20:45 1022 30.18 851 25.13 -9.6 14.8 70 -14.1 6.6
20:50 1022 30.18 851 25.13 -9.6 14.8 70 -14.1 6.5
20:55 1021 30.15 851 25.13 -9.6 14.8 69 -14.3 6.3
21:00 1021 30.15 851 25.13 -9.6 14.7 70 -14.1 6.5
21:05 1021 30.15 851 25.13 -9.6 14.7 70 -14.1 6.7
21:10 1021 30.15 851 25.13 -9.6 14.6 70 -14.1 6.7
21:15 1021 30.15 851 25.13 -9.7 14.6 71 -14.1 6.7
21:20 1022 30.18 851 25.13 -9.7 14.6 71 -13.9 6.9
21:25 1022 30.18 851 25.13 -9.6 14.6 70 -14.1 6.7
21:30 1022 30.18 851 25.13 -9.7 14.6 71 -14 6.8
21:35 1022 30.18 851 25.13 -9.7 14.6 72 -13.9 7
21:40 1022 30.18 851 25.13 -9.7 14.6 71 -14 6.9
21:45 1022 30.18 851 25.13 -9.7 14.6 71 -13.9 6.9
21:50 1022 30.18 851 25.13 -9.7 14.6 71 -14 6.8
21:55 1022 30.18 851 25.13 -9.6 14.7 71 -14 6.8
22:00 1022 30.18 851 25.13 -9.6 14.8 72 -13.8 7.2
22:05 1022 30.18 851 25.13 -9.6 14.8 72 -13.8 7.1
22:10 1022 30.18 851 25.13 -9.5 14.9 71 -13.9 7.1
22:15 1022 30.18 851 25.13 -9.5 14.9 70 -13.9 6.9
22:20 1022 30.18 851 25.13 -9.6 14.8 71 -13.9 7
22:25 1022 30.18 851 25.13 -9.6 14.8 71 -13.9 7
22:30 1022 30.18 851 25.13 -9.5 14.8 70 -14 6.8
22:35 1022 30.18 851 25.13 -9.5 14.8 71 -13.9 7
22:40 1022 30.18 851 25.13 -9.6 14.8 71 -13.8 7.1
22:45 1022 30.18 851 25.13 -9.5 14.9 71 -13.8 7.2
22:50 1022 30.18 851 25.13 -9.5 15 71 -13.7 7.3
22:55 1022 30.18 851 25.13 -9.4 15.1 71 -13.8 7.2
23:00 1022 30.18 851 25.13 -9.4 15.1 70 -13.8 7.2
23:05 1022 30.18 851 25.13 -9.4 15.2 71 -13.7 7.3
23:10 1022 30.18 851 25.13 -9.2 15.4 70 -13.8 7.2
23:15 1022 30.18 851 25.13 -9 15.7 69 -13.8 7.2
23:20 1022 30.18 851 25.13 -8.8 16.1 69 -13.6 7.6
23:25 1022 30.18 851 25.13 -8.9 15.9 69 -13.6 7.5
23:30 1022 30.18 851 25.13 -9.2 15.5 71 -13.6 7.6
23:35 1022 30.18 851 25.13 -9 15.8 70 -13.6 7.5
23:40 1022 30.18 851 25.13 -9 15.9 69 -13.6 7.5
23:45 1022 30.18 851 25.13 -8.9 15.9 70 -13.5 7.7
23:50 1022 30.18 851 25.13 -9.1 15.7 69 -13.7 7.4
23:55 1022 30.18 851 25.13 -9.1 15.7 69 -13.7 7.4
24:00 1022 30.18 851 25.13 -9.1 15.7 68 -14 6.9